createdAt,value
2018-05-03T00:46:25.838Z,5.17
2018-05-03T00:48:59.109Z,4.83
2018-05-03T00:51:32.367Z,5.47
2018-05-03T00:54:06.398Z,6.17
2018-05-03T00:56:39.668Z,5.10
2018-05-03T00:59:13.714Z,6.87
2018-05-03T02:32:44.658Z,5.77
2018-05-03T02:35:17.908Z,5.40
2018-05-03T02:41:11.280Z,7.70
2018-05-03T02:43:44.547Z,5.87
2018-05-03T03:48:07.879Z,5.17
2018-05-03T03:50:41.136Z,7.07
2018-05-03T03:53:14.430Z,6.97
2018-05-03T03:55:47.659Z,5.37
2018-05-03T03:58:20.943Z,6.07
2018-05-03T04:33:25.813Z,7.07
2018-05-03T04:35:59.083Z,9.57
2018-05-03T04:38:32.362Z,6.40
2018-05-03T04:41:06.377Z,7.23
2018-05-03T04:43:39.655Z,5.70
2018-05-03T04:46:13.676Z,6.17
2018-05-03T04:48:47.728Z,5.37
2018-05-03T04:51:20.986Z,5.00
2018-05-03T04:53:55.021Z,6.00
2018-05-03T04:56:28.279Z,6.33
2018-05-03T04:59:02.335Z,5.93
2018-05-03T05:01:35.581Z,5.67
2018-05-03T05:04:09.620Z,5.80
2018-05-03T05:06:42.886Z,6.60
2018-05-03T05:09:16.940Z,6.10
2018-05-03T05:11:50.383Z,5.57
2018-05-03T05:14:23.660Z,5.63
2018-05-03T05:16:56.969Z,5.27
2018-05-03T05:19:30.187Z,5.10
2018-05-03T05:22:04.208Z,6.60
2018-05-03T05:24:37.479Z,6.50
2018-05-03T05:27:10.738Z,5.07
2018-05-03T05:29:44.009Z,5.63
2018-05-03T05:32:17.272Z,6.87
2018-05-03T05:34:51.315Z,6.93
2018-05-03T05:37:24.569Z,5.53
2018-05-03T05:39:58.611Z,10.03
2018-05-03T05:42:31.863Z,5.13
2018-05-03T05:45:05.142Z,6.80
2018-05-03T05:47:38.392Z,5.57
2018-05-03T05:50:11.669Z,8.07
2018-05-03T05:52:44.941Z,6.90
2018-05-03T05:55:18.204Z,5.67
2018-05-03T05:57:51.459Z,7.73
2018-05-03T06:00:24.727Z,5.90
2018-05-03T06:02:57.989Z,5.73
2018-05-03T06:05:31.253Z,5.57
2018-05-03T06:08:04.523Z,5.57
2018-05-03T06:10:38.568Z,6.43
2018-05-03T06:13:11.828Z,7.00
2018-05-03T06:15:45.106Z,8.60
2018-05-03T06:18:18.356Z,6.87
2018-05-03T06:20:51.635Z,5.60
2018-05-03T06:23:24.888Z,5.80
2018-05-03T06:25:59.014Z,6.60
2018-05-03T06:28:32.188Z,6.20
2018-05-03T07:03:28.639Z,6.90
2018-05-03T07:06:01.924Z,5.73
2018-05-03T07:08:35.184Z,8.47
2018-05-03T07:11:09.229Z,7.13
2018-05-03T07:13:42.483Z,8.23
2018-05-03T08:01:49.974Z,6.87
2018-05-03T08:04:23.262Z,5.27
2018-05-03T08:06:56.548Z,7.17
2018-05-03T08:09:29.809Z,4.97
2018-05-03T08:12:03.966Z,5.17
2018-05-03T08:14:37.220Z,5.47
2018-05-03T09:02:43.780Z,7.80
2018-05-03T09:05:17.058Z,4.80
2018-05-03T09:07:50.364Z,6.27
2018-05-03T09:10:24.360Z,5.03
2018-05-03T09:12:57.604Z,5.83
2018-05-03T10:01:05.764Z,5.47
2018-05-03T10:03:39.036Z,5.50
2018-05-03T10:06:12.411Z,5.93
2018-05-03T10:08:46.441Z,6.47
2018-05-03T10:11:19.849Z,6.40
2018-05-03T10:13:53.101Z,5.43
2018-05-03T11:02:00.680Z,6.50
2018-05-03T11:04:33.956Z,6.80
2018-05-03T11:07:07.206Z,7.10
2018-05-03T11:09:41.250Z,5.97
2018-05-03T11:12:14.517Z,5.97
2018-05-03T11:14:48.564Z,7.93
2018-05-03T12:02:55.933Z,7.53
2018-05-03T12:05:29.204Z,7.30
2018-05-03T12:08:03.228Z,8.13
2018-05-03T12:10:37.273Z,6.20
2018-05-03T12:13:10.528Z,7.50
2018-05-03T13:01:17.390Z,9.97
2018-05-03T13:03:50.648Z,6.57
2018-05-03T13:06:23.935Z,12.87
2018-05-03T13:08:57.189Z,7.47
2018-05-03T13:11:30.471Z,5.17
2018-05-03T13:14:04.487Z,6.20
2018-05-03T14:02:10.889Z,7.80
2018-05-03T14:04:44.933Z,8.73
2018-05-03T14:07:18.252Z,6.93
2018-05-03T14:09:52.233Z,6.73
2018-05-03T14:12:25.511Z,8.53
2018-05-03T14:14:58.805Z,6.77
2018-05-03T14:46:48.513Z,10.77
2018-05-03T14:49:21.887Z,8.17
2018-05-03T14:51:55.149Z,8.10
2018-05-03T14:54:28.477Z,9.10
2018-05-03T14:57:01.732Z,8.27
2018-05-03T14:59:35.020Z,10.67
2018-05-03T15:31:27.496Z,10.30
2018-05-03T15:34:00.760Z,12.57
2018-05-03T15:36:34.037Z,13.60
2018-05-03T15:39:07.304Z,13.07
2018-05-03T15:41:40.586Z,15.33
2018-05-03T15:44:13.849Z,14.97
2018-05-03T15:46:47.201Z,18.87
2018-05-03T15:49:21.226Z,16.87
2018-05-03T15:51:54.584Z,12.73
2018-05-03T15:54:27.835Z,16.73
2018-05-03T15:57:01.130Z,14.03
2018-05-03T15:59:34.412Z,16.73
2018-05-03T16:02:07.941Z,17.63
2018-05-03T16:04:41.200Z,17.10
2018-05-03T16:07:14.490Z,16.10
2018-05-03T16:09:47.747Z,20.43
2018-05-03T16:12:21.048Z,17.13
2018-05-03T16:14:54.309Z,17.30
2018-05-03T16:17:27.627Z,17.80
2018-05-03T16:20:01.673Z,16.47
2018-05-03T16:22:35.725Z,16.30
2018-05-03T16:25:08.991Z,12.30
2018-05-03T16:27:42.332Z,18.97
2018-05-03T16:30:15.588Z,16.73
2018-05-03T16:32:48.897Z,19.43
2018-05-03T16:35:22.165Z,18.13
2018-05-03T16:37:55.443Z,18.57
2018-05-03T16:40:29.465Z,17.23
2018-05-03T16:43:02.857Z,17.43
2018-05-03T16:45:36.203Z,19.53
2018-05-03T16:48:09.484Z,18.00
2018-05-03T16:50:42.751Z,18.73
2018-05-03T16:53:16.025Z,15.37
2018-05-03T16:55:50.070Z,19.97
2018-05-03T16:58:23.354Z,17.07
2018-05-03T17:00:56.689Z,21.07
2018-05-03T17:03:29.994Z,18.50
2018-05-03T17:06:03.264Z,15.20
2018-05-03T17:08:36.548Z,17.00
2018-05-03T17:11:09.936Z,16.00
2018-05-03T17:13:43.209Z,14.40
2018-05-03T17:16:17.320Z,13.20
2018-05-03T17:18:50.605Z,15.40
2018-05-03T17:21:23.895Z,15.33
2018-05-03T17:23:57.152Z,14.87
2018-05-03T17:26:30.429Z,18.93
2018-05-03T17:29:03.708Z,16.07
2018-05-03T17:31:36.983Z,15.43
2018-05-03T17:34:10.255Z,15.00
2018-05-03T17:36:43.585Z,12.83
2018-05-03T17:39:17.604Z,13.77
2018-05-03T17:41:50.897Z,11.97
2018-05-03T17:44:24.211Z,13.47
2018-05-03T17:46:58.004Z,14.97
2018-05-03T17:49:31.272Z,13.47
2018-05-03T17:52:05.388Z,14.80
2018-05-03T17:54:39.412Z,12.33
2018-05-03T17:57:12.699Z,12.07
2018-05-03T17:59:45.971Z,10.23
2018-05-03T18:02:19.290Z,11.17
2018-05-03T18:04:52.557Z,10.27
2018-05-03T18:07:25.956Z,11.63
2018-05-03T18:09:59.204Z,12.43
2018-05-03T18:12:32.600Z,14.57
2018-05-03T18:15:05.864Z,15.13
2018-05-03T18:17:39.919Z,11.90
2018-05-03T18:20:13.191Z,10.73
2018-05-03T18:22:46.580Z,14.77
2018-05-03T18:25:19.874Z,14.40
2018-05-03T18:27:53.183Z,14.43
2018-05-03T18:30:26.452Z,14.37
2018-05-03T18:32:59.732Z,14.67
2018-05-03T18:35:33.767Z,12.53
2018-05-03T18:38:07.044Z,15.13
2018-05-03T18:40:40.339Z,12.63
2018-05-03T18:43:14.407Z,13.13
2018-05-03T18:45:47.926Z,10.73
2018-05-03T18:48:22.032Z,12.20
2018-05-03T18:50:57.084Z,11.87
2018-05-03T18:53:30.513Z,11.17
2018-05-03T18:56:03.771Z,10.37
2018-05-03T18:58:37.086Z,15.97
2018-05-03T19:01:11.225Z,13.33
2018-05-03T19:03:44.497Z,11.33
2018-05-03T19:06:18.620Z,10.33
2018-05-03T19:08:51.898Z,9.73
2018-05-03T19:11:25.929Z,10.10
2018-05-03T19:13:59.219Z,12.00
2018-05-03T19:16:32.546Z,12.40
2018-05-03T19:19:06.697Z,11.80
2018-05-03T19:21:39.966Z,12.17
2018-05-03T19:24:13.243Z,9.43
2018-05-03T19:26:46.517Z,11.20
2018-05-03T19:29:19.798Z,13.60
2018-05-03T19:31:53.821Z,12.40
2018-05-03T19:34:27.162Z,9.37
2018-05-03T19:37:00.506Z,10.33
2018-05-03T19:39:35.381Z,10.97
2018-05-03T19:42:08.588Z,9.73
2018-05-03T19:44:41.876Z,9.60
2018-05-03T19:47:15.264Z,9.57
2018-05-03T19:49:48.545Z,9.20
2018-05-03T19:52:21.814Z,10.70
2018-05-03T19:54:55.093Z,11.10
2018-05-03T19:57:29.141Z,13.57
2018-05-03T20:00:02.462Z,13.07
2018-05-03T20:02:35.782Z,11.73
2018-05-03T20:05:09.041Z,12.53
2018-05-03T20:07:42.349Z,13.07
2018-05-03T20:10:15.610Z,12.43
2018-05-03T20:12:48.896Z,11.17
2018-05-03T20:15:22.193Z,11.00
2018-05-03T20:17:55.453Z,9.43
2018-05-03T20:20:28.751Z,10.43
2018-05-03T20:23:02.784Z,11.13
2018-05-03T20:25:36.064Z,9.43
2018-05-03T20:28:09.600Z,10.47
2018-05-03T20:30:42.897Z,13.70
2018-05-03T20:33:16.154Z,11.33
2018-05-03T20:35:49.532Z,9.43
2018-05-03T20:38:22.803Z,11.03
2018-05-03T20:40:56.096Z,11.20
2018-05-03T20:43:29.354Z,11.13
2018-05-03T20:46:02.736Z,11.20
2018-05-03T20:48:35.908Z,10.03
2018-05-03T20:51:09.948Z,10.67
2018-05-03T20:53:43.217Z,10.87
2018-05-03T20:56:16.497Z,10.50
2018-05-03T20:58:49.751Z,12.10
2018-05-03T21:01:23.027Z,12.27
2018-05-03T21:03:56.284Z,9.37
2018-05-03T21:06:30.326Z,12.50
2018-05-03T21:09:03.585Z,10.40
2018-05-03T21:11:36.885Z,9.70
2018-05-03T21:14:10.139Z,12.50
2018-05-03T21:16:43.697Z,13.50
2018-05-03T21:19:16.967Z,11.43
2018-05-03T21:21:50.267Z,12.13
2018-05-03T21:24:24.302Z,9.97
2018-05-03T21:26:57.594Z,10.37
2018-05-03T21:29:31.615Z,11.37
2018-05-03T21:32:05.008Z,14.63
2018-05-03T21:34:38.264Z,11.10
2018-05-03T21:37:11.569Z,10.90
2018-05-03T21:39:45.597Z,11.07
2018-05-03T21:42:18.900Z,11.47
2018-05-03T21:44:52.916Z,11.00
2018-05-03T21:47:26.244Z,13.77
2018-05-03T21:50:00.264Z,11.77
2018-05-03T21:52:33.804Z,13.50
2018-05-03T21:55:07.833Z,10.90
2018-05-03T21:57:41.115Z,10.07
2018-05-03T22:00:15.138Z,10.37
2018-05-03T22:02:48.452Z,13.43
2018-05-03T22:05:21.709Z,11.67
2018-05-03T22:07:56.036Z,11.57
2018-05-03T22:10:29.296Z,12.93
2018-05-03T22:13:02.611Z,14.37
2018-05-03T22:15:35.864Z,11.93
2018-05-03T22:18:09.140Z,13.50
2018-05-03T22:20:42.408Z,13.23
2018-05-03T22:23:15.705Z,12.07
2018-05-03T22:25:48.967Z,14.53
2018-05-03T22:28:22.257Z,10.63
2018-05-03T22:30:55.522Z,10.97
2018-05-03T22:33:28.787Z,12.77
2018-05-03T22:36:02.040Z,17.63
2018-05-03T22:38:35.330Z,13.63
2018-05-03T22:41:08.635Z,16.27
2018-05-03T22:43:41.909Z,11.80
2018-05-03T22:46:15.120Z,12.73
2018-05-03T22:48:48.400Z,12.43
2018-05-03T22:51:21.661Z,11.97
2018-05-03T22:53:54.935Z,11.40
2018-05-03T22:56:28.193Z,10.47
2018-05-03T22:59:01.487Z,11.10
2018-05-03T23:01:34.743Z,11.47
2018-05-03T23:04:08.012Z,10.60
2018-05-03T23:06:41.276Z,12.30
2018-05-03T23:09:14.565Z,10.87
2018-05-03T23:11:47.821Z,10.40
2018-05-03T23:14:21.096Z,9.83
